Time;durP1;ratioP1;P1;durP2;ratioP2;P2;SDS_P1;SDS_P2;PMS_P1;PMS_P2;Temp;Humidity;BMP_temperature;BMP_pressure;BME280_temperature;BME280_humidity;BME280_pressure;Samples;Min_cycle;Max_cycle;Signal;HPM_P1;HPM_P2
2021/01/24 00:02:14;;;;;;;4.72;3.20;;;0.70;99.90;;;;;;5012396;28;20160;-78
2021/01/24 00:04:39;;;;;;;5.53;3.05;;;1.10;99.90;;;;;;5018558;28;20492;-77
2021/01/24 00:07:05;;;;;;;4.20;3.33;;;1.20;99.90;;;;;;5024095;28;20103;-77
2021/01/24 00:09:30;;;;;;;6.63;3.78;;;0.80;99.90;;;;;;5020178;28;20079;-77
2021/01/24 00:11:56;;;;;;;5.88;3.17;;;0.70;99.90;;;;;;5013330;28;20078;-77
2021/01/24 00:14:21;;;;;;;5.03;2.83;;;0.60;99.90;;;;;;5029663;28;20073;-77
2021/01/24 00:16:47;;;;;;;4.95;2.80;;;0.50;99.90;;;;;;5030349;28;20101;-77
2021/01/24 00:19:12;;;;;;;3.10;2.78;;;0.80;99.90;;;;;;5030241;28;20078;-76
2021/01/24 00:21:38;;;;;;;3.88;3.15;;;0.90;99.90;;;;;;5022354;28;20091;-77
2021/01/24 00:24:05;;;;;;;3.60;2.58;;;0.70;99.90;;;;;;5022890;28;20071;-77
2021/01/24 00:26:31;;;;;;;5.50;3.80;;;0.70;99.90;;;;;;5029215;28;20092;-77
2021/01/24 00:28:56;;;;;;;4.25;3.17;;;0.90;99.90;;;;;;5013591;28;20082;-77
2021/01/24 00:31:22;;;;;;;6.47;3.95;;;0.90;99.90;;;;;;5012577;28;20078;-77
2021/01/24 00:33:47;;;;;;;5.82;2.80;;;0.70;99.90;;;;;;5017113;28;20470;-77
2021/01/24 00:36:15;;;;;;;3.70;2.58;;;0.40;99.90;;;;;;5030741;28;20424;-77
2021/01/24 00:38:41;;;;;;;4.07;2.35;;;0.20;99.90;;;;;;5027489;28;20539;-77
2021/01/24 00:41:07;;;;;;;4.10;3.00;;;0.10;99.90;;;;;;5013998;28;20093;-77
2021/01/24 00:43:33;;;;;;;3.15;2.38;;;0.10;99.90;;;;;;5027681;28;20085;-76
2021/01/24 00:45:58;;;;;;;3.22;2.50;;;0.20;99.90;;;;;;5014233;28;20078;-77
2021/01/24 00:48:25;;;;;;;3.45;2.30;;;0.10;99.90;;;;;;5013073;28;20093;-77
2021/01/24 00:50:51;;;;;;;4.75;3.28;;;0.10;99.90;;;;;;5027388;28;20496;-77
2021/01/24 00:53:17;;;;;;;4.47;3.00;;;0.20;99.90;;;;;;5023258;28;20117;-76
2021/01/24 00:55:42;;;;;;;4.35;3.10;;;0.30;99.90;;;;;;5029915;28;20565;-75
2021/01/24 00:58:08;;;;;;;6.10;2.70;;;0.50;99.90;;;;;;5018882;28;20176;-76
2021/01/24 01:00:33;;;;;;;5.03;3.47;;;0.40;99.90;;;;;;5030788;28;20126;-76
2021/01/24 01:02:59;;;;;;;4.57;3.60;;;0.50;99.90;;;;;;5031437;28;20185;-76
2021/01/24 01:05:24;;;;;;;5.18;3.13;;;0.70;99.90;;;;;;5030846;28;20078;-76
2021/01/24 01:07:50;;;;;;;3.25;2.80;;;0.90;99.90;;;;;;5030003;28;20094;-76
2021/01/24 01:10:15;;;;;;;4.90;3.22;;;1.00;99.90;;;;;;5014631;28;20078;-76
2021/01/24 01:12:41;;;;;;;4.25;3.00;;;1.00;99.90;;;;;;5029625;28;20081;-75
2021/01/24 01:15:07;;;;;;;4.07;2.75;;;1.20;99.90;;;;;;5013468;28;20094;-75
2021/01/24 01:17:32;;;;;;;3.95;2.50;;;1.30;99.90;;;;;;5026054;28;20173;-76
2021/01/24 01:19:58;;;;;;;4.20;3.25;;;1.30;99.90;;;;;;5028123;28;20082;-76
2021/01/24 01:22:24;;;;;;;3.75;2.42;;;1.20;99.90;;;;;;5031176;28;20164;-77
2021/01/24 01:24:49;;;;;;;4.97;3.25;;;1.20;99.90;;;;;;5018852;28;20502;-76
2021/01/24 01:27:15;;;;;;;4.10;2.97;;;1.30;99.90;;;;;;5023740;28;20109;-77
2021/01/24 01:29:40;;;;;;;3.38;2.88;;;1.30;99.90;;;;;;5011098;28;20102;-77
2021/01/24 01:32:06;;;;;;;3.53;2.95;;;1.30;99.90;;;;;;5021407;28;20078;-76
2021/01/24 01:34:31;;;;;;;4.25;2.53;;;1.30;99.90;;;;;;5031966;28;20542;-77
2021/01/24 01:36:57;;;;;;;3.33;2.42;;;1.10;99.90;;;;;;5016539;28;20177;-76
2021/01/24 01:39:22;;;;;;;3.15;2.22;;;1.00;99.90;;;;;;5026998;28;20691;-76
2021/01/24 01:41:48;;;;;;;3.72;2.50;;;1.00;99.90;;;;;;5014012;28;20180;-77
2021/01/24 01:44:14;;;;;;;3.30;2.45;;;0.90;99.90;;;;;;5012000;28;20153;-76
2021/01/24 01:46:40;;;;;;;3.72;2.63;;;0.90;99.90;;;;;;5023698;28;20097;-76
2021/01/24 01:49:06;;;;;;;3.03;2.33;;;1.10;99.90;;;;;;5023618;28;20077;-76
2021/01/24 01:51:32;;;;;;;4.75;2.58;;;1.10;99.90;;;;;;5026149;28;20104;-76
2021/01/24 01:53:59;;;;;;;3.58;2.40;;;1.20;99.90;;;;;;5026205;28;20086;-76
2021/01/24 01:56:24;;;;;;;4.13;2.65;;;1.20;99.90;;;;;;5020845;28;20086;-76
2021/01/24 01:58:50;;;;;;;2.78;2.33;;;1.10;99.90;;;;;;5010951;28;20085;-76
2021/01/24 02:01:50;;;;;;;4.25;3.00;;;0.90;99.90;;;;;;5009853;28;20179;-76
2021/01/24 02:04:40;;;;;;;3.42;2.72;;;0.90;99.90;;;;;;5014466;28;20562;-76
2021/01/24 02:07:15;;;;;;;4.82;3.25;;;0.90;99.90;;;;;;5009527;28;20137;-76
2021/01/24 02:09:40;;;;;;;;;;;0.80;99.90;;;;;;5016852;28;20094;-76
2021/01/24 02:12:15;;;;;;;2.80;1.98;;;0.80;99.90;;;;;;5021423;28;20381;-76
2021/01/24 02:14:45;;;;;;;2.33;1.90;;;0.80;99.90;;;;;;5010386;28;20078;-77
2021/01/24 02:17:13;;;;;;;3.60;1.85;;;0.90;99.90;;;;;;5028505;28;20152;-76
2021/01/24 02:19:57;;;;;;;3.78;2.15;;;0.90;99.90;;;;;;5025256;28;20078;-76
2021/01/24 02:22:27;;;;;;;2.97;2.22;;;0.90;99.90;;;;;;5025259;28;20116;-77
2021/01/24 02:25:00;;;;;;;2.90;1.95;;;1.00;99.90;;;;;;5029674;28;20128;-76
2021/01/24 02:27:42;;;;;;;2.20;1.75;;;0.90;99.90;;;;;;5021049;28;20120;-76
2021/01/24 02:30:11;;;;;;;2.22;1.58;;;0.90;99.90;;;;;;5015176;28;20487;-76
2021/01/24 02:32:37;;;;;;;1.85;1.40;;;0.90;99.90;;;;;;5010895;28;20447;-77
2021/01/24 02:35:04;;;;;;;1.50;1.38;;;1.00;99.90;;;;;;5027578;28;20074;-76
2021/01/24 02:37:31;;;;;;;2.90;1.80;;;1.00;99.90;;;;;;5031428;28;20089;-77
2021/01/24 02:39:58;;;;;;;2.67;1.67;;;1.00;99.90;;;;;;5029957;28;20111;-77
2021/01/24 02:42:25;;;;;;;2.30;1.88;;;1.10;99.90;;;;;;5013354;28;20099;-77
2021/01/24 02:44:51;;;;;;;2.08;1.80;;;1.10;99.90;;;;;;5026891;28;20164;-77
2021/01/24 02:47:18;;;;;;;1.88;0.98;;;1.20;99.90;;;;;;5024641;28;20185;-77
2021/01/24 02:49:46;;;;;;;1.17;0.80;;;1.20;99.90;;;;;;5028964;28;20074;-77
2021/01/24 02:52:13;;;;;;;0.80;0.60;;;1.30;99.90;;;;;;5016066;28;20078;-77
2021/01/24 02:54:39;;;;;;;0.90;0.70;;;1.40;99.90;;;;;;5014172;28;20593;-76
2021/01/24 02:57:05;;;;;;;1.50;0.80;;;1.70;99.90;;;;;;5014455;28;20096;-76
2021/01/24 02:59:33;;;;;;;0.50;0.40;;;1.70;99.90;;;;;;5016332;28;20078;-76
2021/01/24 03:01:59;;;;;;;0.80;0.60;;;1.70;99.90;;;;;;5024828;28;20113;-76
2021/01/24 03:04:25;;;;;;;1.20;0.70;;;1.70;99.90;;;;;;5015162;28;20066;-76
2021/01/24 03:06:51;;;;;;;0.63;0.60;;;1.70;99.90;;;;;;5028048;28;20125;-76
2021/01/24 03:09:17;;;;;;;0.40;0.30;;;1.70;99.90;;;;;;5030284;28;20085;-76
2021/01/24 03:11:47;;;;;;;1.00;0.73;;;1.70;99.90;;;;;;5033961;28;20160;-77
2021/01/24 03:14:17;;;;;;;1.60;0.40;;;1.70;99.90;;;;;;5037310;28;20081;-76
2021/01/24 03:16:47;;;;;;;0.75;0.43;;;1.70;99.90;;;;;;5029290;28;20121;-77
2021/01/24 03:19:17;;;;;;;1.02;0.80;;;1.70;99.90;;;;;;5028595;28;20502;-76
2021/01/24 03:21:44;;;;;;;1.75;0.60;;;1.70;99.90;;;;;;5027406;28;20485;-76
2021/01/24 03:24:10;;;;;;;0.60;0.40;;;1.70;99.90;;;;;;5027155;28;20066;-76
2021/01/24 03:26:36;;;;;;;0.68;0.50;;;1.60;99.90;;;;;;5014196;28;20086;-77
2021/01/24 03:29:02;;;;;;;1.52;0.65;;;1.60;99.90;;;;;;5030709;28;20085;-76
2021/01/24 03:31:31;;;;;;;2.22;0.60;;;1.60;99.90;;;;;;5017238;28;20076;-76
2021/01/24 03:33:58;;;;;;;1.55;0.40;;;1.60;99.90;;;;;;5015037;28;20566;-76
2021/01/24 03:36:23;;;;;;;1.73;0.50;;;1.60;99.90;;;;;;5026973;28;20489;-77
2021/01/24 03:38:49;;;;;;;0.50;0.40;;;1.60;99.90;;;;;;5014818;28;20088;-76
2021/01/24 03:41:14;;;;;;;0.55;0.50;;;1.70;99.90;;;;;;5020818;28;20544;-76
2021/01/24 03:43:40;;;;;;;0.57;0.45;;;1.70;99.90;;;;;;5030611;28;20534;-76
2021/01/24 03:46:06;;;;;;;0.77;0.50;;;1.60;99.90;;;;;;5025728;28;20173;-76
2021/01/24 03:48:32;;;;;;;0.60;0.30;;;1.60;99.90;;;;;;5028522;28;20449;-76
2021/01/24 03:50:58;;;;;;;0.50;0.30;;;1.60;99.90;;;;;;5031585;28;20561;-76
2021/01/24 03:53:23;;;;;;;2.28;0.40;;;1.60;99.90;;;;;;5026586;28;20080;-76
2021/01/24 03:55:49;;;;;;;0.30;0.20;;;1.50;99.90;;;;;;5027340;28;20082;-76
2021/01/24 03:58:15;;;;;;;1.65;0.57;;;1.60;99.90;;;;;;5025909;28;20628;-77
2021/01/24 04:00:40;;;;;;;0.52;0.35;;;1.50;99.90;;;;;;5013365;28;20110;-77
2021/01/24 04:03:06;;;;;;;0.40;0.20;;;1.60;99.90;;;;;;5012975;28;20101;-76
2021/01/24 04:05:31;;;;;;;1.10;0.75;;;1.50;99.90;;;;;;5024901;28;20621;-76
2021/01/24 04:07:57;;;;;;;0.40;0.30;;;1.60;99.90;;;;;;5024420;28;20604;-76
2021/01/24 04:10:23;;;;;;;0.73;0.32;;;1.50;99.90;;;;;;5027320;28;20105;-77
2021/01/24 04:12:48;;;;;;;0.40;0.32;;;1.50;99.90;;;;;;5017015;28;20074;-77
2021/01/24 04:15:15;;;;;;;0.40;0.30;;;1.50;99.90;;;;;;5012169;28;20082;-77
2021/01/24 04:17:40;;;;;;;0.40;0.30;;;1.50;99.90;;;;;;5025967;28;20148;-76
2021/01/24 04:20:07;;;;;;;0.50;0.20;;;1.60;99.90;;;;;;5029055;28;20086;-77
2021/01/24 04:22:32;;;;;;;2.03;0.30;;;1.50;99.90;;;;;;5012809;28;20164;-76
2021/01/24 04:25:01;;;;;;;0.50;0.40;;;1.50;99.90;;;;;;5024094;28;20074;-76
2021/01/24 04:27:26;;;;;;;1.05;0.50;;;1.50;99.90;;;;;;5027709;28;20135;-75
2021/01/24 04:29:52;;;;;;;0.80;0.40;;;1.40;99.90;;;;;;5025521;28;20477;-76
2021/01/24 04:32:18;;;;;;;1.05;0.73;;;1.40;99.90;;;;;;5031091;28;20101;-76
2021/01/24 04:34:43;;;;;;;0.68;0.40;;;1.40;99.90;;;;;;5024859;28;20078;-76
2021/01/24 04:37:09;;;;;;;0.63;0.30;;;1.40;99.90;;;;;;5027459;28;20129;-76
2021/01/24 04:39:35;;;;;;;0.65;0.20;;;1.40;99.90;;;;;;5016013;28;20088;-76
2021/01/24 04:42:01;;;;;;;0.38;0.20;;;1.40;99.90;;;;;;5031060;28;20561;-76
2021/01/24 04:44:27;;;;;;;0.70;0.20;;;1.40;99.90;;;;;;5027171;28;20136;-76
2021/01/24 04:46:54;;;;;;;0.75;0.30;;;1.30;99.90;;;;;;5012388;28;20118;-76
2021/01/24 04:49:21;;;;;;;0.47;0.40;;;1.40;99.90;;;;;;5017401;28;20093;-76
2021/01/24 04:51:47;;;;;;;1.08;0.35;;;1.30;99.90;;;;;;5012479;28;20487;-76
2021/01/24 04:54:13;;;;;;;0.20;0.20;;;1.40;99.90;;;;;;5023186;28;20165;-76
2021/01/24 04:56:39;;;;;;;0.95;0.45;;;1.40;99.90;;;;;;5030491;28;20184;-76
2021/01/24 04:59:05;;;;;;;1.10;0.30;;;1.40;99.90;;;;;;5015090;28;20121;-76
2021/01/24 05:01:35;;;;;;;0.55;0.30;;;1.40;99.90;;;;;;5030327;28;20584;-76
2021/01/24 05:04:00;;;;;;;1.17;0.20;;;1.40;99.90;;;;;;5026987;28;20124;-76
2021/01/24 05:06:27;;;;;;;2.53;0.38;;;1.50;99.90;;;;;;5011744;28;20094;-76
2021/01/24 05:08:53;;;;;;;0.60;0.30;;;1.50;99.90;;;;;;5019172;28;20122;-76
2021/01/24 05:11:20;;;;;;;0.45;0.30;;;1.50;99.90;;;;;;5016153;28;20163;-77
2021/01/24 05:13:46;;;;;;;0.40;0.30;;;1.50;99.90;;;;;;5026340;28;20085;-77
2021/01/24 05:16:12;;;;;;;0.45;0.20;;;1.50;99.90;;;;;;5022012;28;20453;-77
2021/01/24 05:18:38;;;;;;;0.40;0.30;;;1.50;99.90;;;;;;5025522;28;20497;-77
2021/01/24 05:21:04;;;;;;;0.32;0.30;;;1.50;99.90;;;;;;5020996;28;20473;-77
2021/01/24 05:23:29;;;;;;;0.90;0.40;;;1.50;99.90;;;;;;5017182;28;20101;-76
2021/01/24 05:25:56;;;;;;;2.03;0.50;;;1.50;99.90;;;;;;5010128;28;20074;-76
2021/01/24 05:28:24;;;;;;;0.50;0.30;;;1.50;99.90;;;;;;5011757;28;20193;-75
2021/01/24 05:30:51;;;;;;;0.30;0.30;;;1.60;99.90;;;;;;5027767;28;20575;-76
2021/01/24 05:33:18;;;;;;;0.57;0.47;;;1.60;99.90;;;;;;5029820;28;20086;-77
2021/01/24 05:35:49;;;;;;;0.75;0.30;;;1.60;99.90;;;;;;5023114;28;20161;-76
2021/01/24 05:38:32;;;;;;;0.20;0.20;;;1.70;99.90;;;;;;5029372;28;20181;-76
2021/01/24 05:41:06;;;;;;;0.75;0.40;;;1.60;99.90;;;;;;5029502;28;20085;-76
2021/01/24 05:43:43;;;;;;;0.68;0.65;;;1.70;99.90;;;;;;5026200;28;20565;-76
2021/01/24 05:46:10;;;;;;;0.40;0.20;;;1.70;99.90;;;;;;5026552;28;20086;-76
2021/01/24 05:48:47;;;;;;;0.90;0.50;;;1.70;99.90;;;;;;5021140;28;20070;-76
2021/01/24 05:51:14;;;;;;;1.63;0.40;;;1.70;99.90;;;;;;5025206;28;20074;-76
2021/01/24 05:56:19;;;;;;;1.08;0.40;;;1.70;99.90;;;;;;5003859;28;20201;-75
2021/01/24 05:58:45;;;;;;;0.65;0.43;;;1.70;99.90;;;;;;5015905;28;20078;-75
2021/01/24 06:01:11;;;;;;;0.30;0.30;;;1.70;99.90;;;;;;5003484;28;20071;-77
2021/01/24 06:03:37;;;;;;;0.47;0.17;;;1.70;99.90;;;;;;4991015;28;20079;-75
2021/01/24 06:06:05;;;;;;;0.35;0.20;;;1.70;99.90;;;;;;4999699;28;20120;-76
2021/01/24 06:08:32;;;;;;;0.25;0.20;;;1.70;99.90;;;;;;5008152;28;20075;-75
2021/01/24 06:10:59;;;;;;;0.52;0.30;;;1.60;99.90;;;;;;5005467;28;20506;-75
2021/01/24 06:13:29;;;;;;;0.30;0.22;;;1.60;99.90;;;;;;4994052;28;20185;-75
2021/01/24 06:16:05;;;;;;;1.33;0.15;;;1.60;99.90;;;;;;5000332;28;20465;-76
2021/01/24 06:18:41;;;;;;;0.57;0.30;;;1.50;99.90;;;;;;4998992;28;20176;-76
2021/01/24 06:21:08;;;;;;;0.15;0.10;;;1.50;99.90;;;;;;4990545;28;20102;-78
2021/01/24 06:23:50;;;;;;;0.32;0.20;;;1.50;99.90;;;;;;4991552;28;20074;-77
2021/01/24 06:26:17;;;;;;;0.20;0.17;;;1.50;99.90;;;;;;4992492;28;20079;-76
2021/01/24 06:28:49;;;;;;;0.68;0.43;;;1.40;99.90;;;;;;4994958;28;20071;-76
2021/01/24 06:31:17;;;;;;;0.40;0.20;;;1.30;99.90;;;;;;4991361;28;20062;-78
2021/01/24 06:33:52;;;;;;;0.73;0.50;;;1.40;99.90;;;;;;5008192;28;20109;-78
2021/01/24 06:36:18;;;;;;;0.35;0.35;;;1.40;99.90;;;;;;4998944;28;20085;-77
2021/01/24 06:38:52;;;;;;;0.50;0.32;;;1.30;99.90;;;;;;5002737;28;20110;-77
2021/01/24 06:41:44;;;;;;;0.50;0.35;;;1.40;99.90;;;;;;5003311;28;20086;-75
2021/01/24 06:44:39;;;;;;;0.60;0.52;;;1.30;99.90;;;;;;4993584;28;20095;-75
2021/01/24 06:47:28;;;;;;;0.57;0.52;;;1.30;99.90;;;;;;5003531;28;20513;-74
2021/01/24 06:49:53;;;;;;;0.40;0.30;;;1.30;99.90;;;;;;4990420;28;20154;-75
2021/01/24 06:52:21;;;;;;;0.82;0.43;;;1.30;99.90;;;;;;5005765;28;20622;-75
2021/01/24 06:54:48;;;;;;;0.32;0.32;;;1.30;99.90;;;;;;4995309;28;20517;-75
2021/01/24 06:57:14;;;;;;;0.52;0.30;;;1.30;99.90;;;;;;5009861;28;20071;-75
2021/01/24 06:59:42;;;;;;;0.70;0.50;;;1.30;99.90;;;;;;5007117;28;20553;-76
2021/01/24 07:02:41;;;;;;;0.55;0.40;;;1.30;99.90;;;;;;5004820;28;20099;-75
2021/01/24 07:05:16;;;;;;;0.30;0.25;;;1.30;99.90;;;;;;4971973;28;20106;-75
2021/01/24 07:07:53;;;;;;;0.40;0.30;;;1.20;99.90;;;;;;4992495;28;20078;-75
2021/01/24 07:10:37;;;;;;;0.88;0.43;;;1.20;99.90;;;;;;4991869;28;20082;-77
2021/01/24 07:13:25;;;;;;;1.17;0.43;;;1.20;99.90;;;;;;4992729;28;20158;-76
2021/01/24 07:16:11;;;;;;;1.02;0.55;;;1.30;99.90;;;;;;4992958;28;20156;-78
2021/01/24 07:18:38;;;;;;;0.30;0.30;;;1.30;99.90;;;;;;4990783;28;20450;-75
2021/01/24 07:21:04;;;;;;;0.63;0.40;;;1.20;99.90;;;;;;4993630;28;20517;-77
2021/01/24 07:23:32;;;;;;;1.05;0.63;;;1.30;99.90;;;;;;4999254;28;20095;-75
2021/01/24 07:26:00;;;;;;;0.20;0.20;;;1.30;99.90;;;;;;4997111;28;20087;-78
2021/01/24 07:28:27;;;;;;;0.40;0.32;;;1.30;99.90;;;;;;5010610;28;20137;-77
2021/01/24 07:30:58;;;;;;;0.50;0.40;;;1.30;99.90;;;;;;4996197;28;20129;-77
2021/01/24 07:33:26;;;;;;;1.10;0.70;;;1.30;99.90;;;;;;5007870;28;20070;-78
2021/01/24 07:35:55;;;;;;;1.73;0.70;;;1.30;99.90;;;;;;4999899;28;20189;-77
2021/01/24 07:38:21;;;;;;;1.90;0.70;;;1.40;99.90;;;;;;5010128;28;20085;-78
2021/01/24 07:40:50;;;;;;;1.15;0.70;;;1.30;99.90;;;;;;5006448;28;20173;-77
2021/01/24 07:43:16;;;;;;;0.50;0.30;;;1.40;99.90;;;;;;5001058;28;20103;-78
2021/01/24 07:45:44;;;;;;;3.38;1.42;;;1.30;99.90;;;;;;4994827;28;20113;-77
2021/01/24 07:48:09;;;;;;;1.20;0.45;;;1.30;99.90;;;;;;4993981;28;20212;-77
2021/01/24 07:50:35;;;;;;;1.33;0.82;;;1.40;99.90;;;;;;5002550;28;20177;-77
2021/01/24 07:53:02;;;;;;;1.13;0.57;;;1.30;99.90;;;;;;5002010;28;20082;-77
2021/01/24 07:55:28;;;;;;;1.95;0.90;;;1.40;99.90;;;;;;5003881;28;20197;-78
2021/01/24 07:57:54;;;;;;;1.70;1.23;;;1.40;99.90;;;;;;4995321;28;20090;-77
2021/01/24 08:00:20;;;;;;;3.10;1.17;;;1.40;99.90;;;;;;5013291;28;20078;-77
2021/01/24 08:02:46;;;;;;;2.20;1.48;;;1.40;99.90;;;;;;5010837;28;20105;-77
2021/01/24 08:05:12;;;;;;;3.17;2.10;;;1.40;99.90;;;;;;4997686;28;20478;-77
2021/01/24 08:07:38;;;;;;;3.22;1.35;;;1.50;99.90;;;;;;4991369;28;20094;-76
2021/01/24 08:10:04;;;;;;;1.70;1.00;;;1.40;99.90;;;;;;4992577;28;20272;-77
2021/01/24 08:12:30;;;;;;;1.98;1.35;;;1.40;99.90;;;;;;4993238;28;20597;-77
2021/01/24 08:14:56;;;;;;;0.90;0.63;;;1.50;99.90;;;;;;4993532;28;20126;-77
2021/01/24 08:17:22;;;;;;;2.10;0.73;;;1.50;99.90;;;;;;4993734;28;20102;-77
2021/01/24 08:19:49;;;;;;;0.82;0.63;;;1.50;99.10;;;;;;4999664;28;20137;-77
2021/01/24 08:22:14;;;;;;;1.23;0.57;;;1.50;98.80;;;;;;5005249;28;20090;-76
2021/01/24 08:24:41;;;;;;;2.03;0.80;;;1.50;97.70;;;;;;5005841;28;20675;-77
2021/01/24 08:27:08;;;;;;;1.33;0.50;;;1.50;96.70;;;;;;4994292;28;20079;-77
2021/01/24 08:29:35;;;;;;;2.83;0.90;;;1.50;96.80;;;;;;4999631;28;20074;-77
2021/01/24 08:32:07;;;;;;;1.48;0.80;;;1.50;96.90;;;;;;4988745;28;20087;-77
2021/01/24 08:34:34;;;;;;;2.15;0.70;;;1.50;97.40;;;;;;5001047;28;20692;-77
2021/01/24 08:37:00;;;;;;;0.63;0.60;;;1.50;95.30;;;;;;5007528;28;20078;-77
2021/01/24 08:39:27;;;;;;;2.55;0.60;;;1.50;96.70;;;;;;5005371;28;20166;-77
2021/01/24 08:41:53;;;;;;;4.90;1.33;;;1.50;96.40;;;;;;5008221;28;20098;-75
2021/01/24 08:44:20;;;;;;;2.95;0.98;;;1.50;95.40;;;;;;5008306;28;20094;-77
2021/01/24 08:47:02;;;;;;;0.70;0.57;;;1.50;95.80;;;;;;5022639;28;20087;-77
2021/01/24 08:49:31;;;;;;;1.95;0.75;;;1.50;96.50;;;;;;5006018;28;20193;-75
2021/01/24 08:52:00;;;;;;;2.92;0.82;;;1.50;96.20;;;;;;5015779;28;20160;-75
2021/01/24 08:54:32;;;;;;;4.75;1.00;;;1.50;97.00;;;;;;5001790;28;20126;-77
2021/01/24 08:57:13;;;;;;;2.13;0.88;;;1.60;97.90;;;;;;5009627;28;20087;-77
2021/01/24 09:00:00;;;;;;;2.70;1.08;;;1.70;98.00;;;;;;5007901;28;20505;-77
2021/01/24 09:02:33;;;;;;;1.67;0.70;;;1.70;97.30;;;;;;5004230;28;20138;-77
2021/01/24 09:05:00;;;;;;;2.03;0.88;;;1.70;96.50;;;;;;4998091;28;20102;-79
2021/01/24 09:07:42;;;;;;;2.33;0.68;;;1.70;96.80;;;;;;4993167;28;20477;-80
2021/01/24 09:10:20;;;;;;;2.72;1.02;;;1.90;97.80;;;;;;4997254;28;20075;-80
2021/01/24 09:12:48;;;;;;;4.60;0.90;;;1.80;97.40;;;;;;5010582;28;20152;-76
2021/01/24 09:15:15;;;;;;;4.30;1.60;;;1.80;97.10;;;;;;5008203;28;20101;-75
2021/01/24 09:17:40;;;;;;;2.15;1.10;;;1.70;98.00;;;;;;5007792;28;20079;-76
2021/01/24 09:20:08;;;;;;;2.72;1.50;;;1.70;98.00;;;;;;4990608;28;20079;-77
2021/01/24 09:22:34;;;;;;;2.47;1.10;;;1.70;98.40;;;;;;5007713;28;20165;-76
2021/01/24 09:24:59;;;;;;;3.08;1.52;;;1.60;98.10;;;;;;5000211;28;20156;-77
2021/01/24 09:27:25;;;;;;;6.00;1.13;;;1.70;98.20;;;;;;4997868;28;20080;-76
2021/01/24 09:29:51;;;;;;;21.17;9.18;;;1.70;98.90;;;;;;5006562;28;20082;-77
2021/01/24 09:32:16;;;;;;;10.88;5.13;;;1.60;99.40;;;;;;5008415;28;20515;-76
2021/01/24 09:34:42;;;;;;;3.08;1.55;;;1.40;99.90;;;;;;4993086;28;20126;-77
2021/01/24 09:37:07;;;;;;;4.10;2.40;;;1.40;99.90;;;;;;5012429;28;20558;-77
2021/01/24 09:39:33;;;;;;;3.53;1.98;;;1.20;99.90;;;;;;5003983;28;20093;-75
2021/01/24 09:41:59;;;;;;;4.47;3.90;;;1.10;99.90;;;;;;5019659;28;20868;-76
2021/01/24 09:44:24;;;;;;;2.80;1.55;;;1.00;99.90;;;;;;5001321;28;21255;-76
2021/01/24 09:46:50;;;;;;;3.22;1.13;;;0.90;99.90;;;;;;4999942;28;20089;-76
2021/01/24 09:49:16;;;;;;;2.47;1.63;;;0.90;99.90;;;;;;5001611;28;20078;-77
2021/01/24 09:51:41;;;;;;;1.00;0.80;;;0.90;99.90;;;;;;5006343;28;20089;-76
2021/01/24 09:54:07;;;;;;;1.40;0.85;;;0.90;99.90;;;;;;5000002;28;20109;-76
2021/01/24 09:56:33;;;;;;;1.33;0.77;;;0.90;99.90;;;;;;5016066;28;20086;-77
2021/01/24 09:58:59;;;;;;;3.90;2.17;;;0.90;99.90;;;;;;4979179;28;20083;-75
2021/01/24 10:01:25;;;;;;;2.28;1.50;;;1.00;99.90;;;;;;4975865;28;20075;-77
2021/01/24 10:03:51;;;;;;;2.83;1.27;;;1.00;99.90;;;;;;4995695;28;20071;-77
2021/01/24 10:06:18;;;;;;;1.55;1.00;;;1.20;99.90;;;;;;5002706;28;20149;-75
2021/01/24 10:08:45;;;;;;;3.80;2.03;;;1.30;99.90;;;;;;4994872;28;20077;-77
2021/01/24 10:11:11;;;;;;;4.18;1.60;;;1.40;99.90;;;;;;4997114;28;20070;-77
2021/01/24 10:13:37;;;;;;;3.08;1.65;;;1.50;98.50;;;;;;4995800;28;20101;-77
2021/01/24 10:16:03;;;;;;;3.35;1.38;;;1.70;98.20;;;;;;4997637;28;20765;-77
2021/01/24 10:18:29;;;;;;;1.38;1.05;;;1.70;95.80;;;;;;5001891;28;20173;-75
2021/01/24 10:20:55;;;;;;;1.45;1.00;;;1.70;94.50;;;;;;4994512;28;20564;-77
2021/01/24 10:23:21;;;;;;;2.13;1.23;;;1.60;92.20;;;;;;4997108;28;20094;-76
2021/01/24 10:25:52;;;;;;;3.17;1.65;;;1.50;92.60;;;;;;4997328;28;20083;-76
2021/01/24 10:28:19;;;;;;;3.05;1.85;;;1.50;93.00;;;;;;4988459;28;20085;-76
2021/01/24 10:30:48;;;;;;;2.88;1.40;;;1.50;93.20;;;;;;4998140;28;20074;-76
2021/01/24 10:33:14;;;;;;;3.90;1.23;;;1.60;92.20;;;;;;5005935;28;20103;-77
2021/01/24 10:35:41;;;;;;;2.50;1.30;;;1.60;91.80;;;;;;5006755;28;20090;-77
2021/01/24 10:38:07;;;;;;;2.03;1.38;;;1.60;92.30;;;;;;5002014;28;20074;-77
2021/01/24 10:40:34;;;;;;;3.42;1.50;;;1.60;92.80;;;;;;4996176;28;20071;-77
2021/01/24 10:43:02;;;;;;;3.22;1.92;;;1.60;92.10;;;;;;4995690;28;21034;-77
2021/01/24 10:45:27;;;;;;;3.22;1.58;;;1.70;92.50;;;;;;4994472;28;20727;-78
2021/01/24 10:47:53;;;;;;;2.95;1.27;;;1.70;90.70;;;;;;5006973;28;20078;-76
2021/01/24 10:50:19;;;;;;;2.50;1.27;;;1.70;88.40;;;;;;4999036;28;20189;-77
2021/01/24 10:52:45;;;;;;;1.30;0.90;;;1.70;89.80;;;;;;5001931;28;20102;-77
2021/01/24 10:55:11;;;;;;;1.75;1.33;;;1.70;89.80;;;;;;4998884;28;20633;-76
2021/01/24 10:57:38;;;;;;;1.45;1.05;;;1.70;91.00;;;;;;5003998;28;20078;-76
2021/01/24 11:00:07;;;;;;;4.38;2.15;;;1.70;89.40;;;;;;5004154;28;20078;-77
2021/01/24 11:02:33;;;;;;;2.50;1.20;;;1.70;90.80;;;;;;5023333;28;20089;-76
2021/01/24 11:04:59;;;;;;;3.33;1.98;;;1.70;90.10;;;;;;5007675;28;20165;-78
2021/01/24 11:07:25;;;;;;;2.75;1.40;;;1.70;86.30;;;;;;5008601;28;20501;-75
2021/01/24 11:09:51;;;;;;;3.70;1.35;;;1.70;87.30;;;;;;5008606;28;20097;-75
2021/01/24 11:12:16;;;;;;;6.38;2.55;;;1.70;90.20;;;;;;5012169;28;20074;-75
2021/01/24 11:14:42;;;;;;;2.45;1.65;;;1.70;87.10;;;;;;5009257;28;20818;-78
2021/01/24 11:17:08;;;;;;;2.95;1.48;;;1.70;87.00;;;;;;5007380;28;20082;-75
2021/01/24 11:19:36;;;;;;;1.83;1.10;;;1.70;90.10;;;;;;5017228;28;20086;-77
2021/01/24 11:22:02;;;;;;;2.35;1.27;;;1.80;85.70;;;;;;5006138;28;20117;-77
2021/01/24 11:24:27;;;;;;;3.22;1.73;;;1.80;89.80;;;;;;4999320;28;20570;-75
2021/01/24 11:26:53;;;;;;;1.55;1.02;;;1.80;86.60;;;;;;4997868;28;20090;-76
2021/01/24 11:29:19;;;;;;;2.45;1.50;;;1.80;86.80;;;;;;5010335;28;20077;-76
2021/01/24 11:31:45;;;;;;;2.17;1.10;;;1.90;86.10;;;;;;5011608;28;20105;-75
2021/01/24 11:34:11;;;;;;;3.05;1.60;;;1.80;87.10;;;;;;5006547;28;20178;-73
2021/01/24 11:36:37;;;;;;;8.63;2.03;;;1.80;86.10;;;;;;5009798;28;20085;-75
2021/01/24 11:39:03;;;;;;;5.10;1.20;;;1.90;87.80;;;;;;5012753;28;20445;-74
2021/01/24 11:41:29;;;;;;;2.60;1.55;;;2.00;86.30;;;;;;5003624;28;20152;-75
2021/01/24 11:43:54;;;;;;;9.15;3.47;;;2.00;84.80;;;;;;4998914;28;20509;-74
2021/01/24 11:46:21;;;;;;;7.35;2.90;;;2.00;88.50;;;;;;4993377;28;20094;-75
2021/01/24 11:48:46;;;;;;;5.13;1.92;;;2.00;84.00;;;;;;4992782;28;20083;-74
2021/01/24 11:51:13;;;;;;;4.15;1.85;;;2.00;88.20;;;;;;5007474;28;20082;-75
2021/01/24 11:53:39;;;;;;;1.63;1.40;;;2.00;86.90;;;;;;5012250;28;20078;-77
2021/01/24 11:56:05;;;;;;;2.17;1.08;;;2.00;81.90;;;;;;5010535;28;20112;-73
2021/01/24 11:58:31;;;;;;;2.42;1.30;;;1.90;87.10;;;;;;4993803;28;20486;-75
2021/01/24 12:00:56;;;;;;;2.92;1.45;;;1.90;84.20;;;;;;5003243;28;20707;-74
2021/01/24 12:03:22;;;;;;;8.30;2.20;;;1.90;87.70;;;;;;4997275;28;20110;-76
2021/01/24 12:05:48;;;;;;;4.95;0.95;;;1.90;81.70;;;;;;4990796;28;20377;-76
2021/01/24 12:08:13;;;;;;;1.77;1.50;;;1.90;84.20;;;;;;4993270;28;20121;-72
2021/01/24 12:10:39;;;;;;;5.20;3.25;;;1.90;83.80;;;;;;4994676;28;20510;-73
2021/01/24 12:13:05;;;;;;;3.17;1.40;;;1.90;83.70;;;;;;4990532;28;20074;-71
2021/01/24 12:15:31;;;;;;;5.30;1.73;;;1.90;85.50;;;;;;4992267;28;20106;-74
2021/01/24 12:17:56;;;;;;;3.58;1.60;;;1.90;86.20;;;;;;4999988;28;20096;-74
2021/01/24 12:20:22;;;;;;;4.05;1.65;;;1.90;85.30;;;;;;5009783;28;20128;-76
2021/01/24 12:22:47;;;;;;;3.92;1.52;;;1.90;87.10;;;;;;5004021;28;20091;-75
2021/01/24 12:25:13;;;;;;;3.20;1.30;;;1.80;87.50;;;;;;4995826;28;20091;-75
2021/01/24 12:27:39;;;;;;;4.07;1.90;;;1.90;87.20;;;;;;4996419;28;20149;-75
2021/01/24 12:30:05;;;;;;;4.05;1.75;;;1.90;86.80;;;;;;4992903;28;20082;-73
2021/01/24 12:32:31;;;;;;;4.28;1.40;;;1.90;87.30;;;;;;4990763;28;20083;-73
2021/01/24 12:34:56;;;;;;;5.57;1.70;;;1.90;86.80;;;;;;5015355;28;20103;-74
2021/01/24 12:37:22;;;;;;;3.35;1.90;;;1.90;88.00;;;;;;4998022;28;20149;-76
2021/01/24 12:39:48;;;;;;;7.95;2.95;;;1.90;88.80;;;;;;4997575;28;20535;-75
2021/01/24 12:42:13;;;;;;;6.57;2.45;;;1.90;85.40;;;;;;5000414;28;20102;-74
2021/01/24 12:44:39;;;;;;;4.63;2.78;;;1.90;85.40;;;;;;4991192;28;20451;-73
2021/01/24 12:47:04;;;;;;;4.22;2.30;;;1.80;85.60;;;;;;5009546;28;20523;-74
2021/01/24 12:49:30;;;;;;;3.45;2.00;;;1.80;88.20;;;;;;5004121;28;20078;-74
2021/01/24 12:51:56;;;;;;;4.60;2.17;;;1.90;90.40;;;;;;4991630;28;20123;-74
2021/01/24 12:54:21;;;;;;;5.68;2.78;;;1.90;89.00;;;;;;4999351;28;20133;-74
2021/01/24 12:56:47;;;;;;;4.18;1.75;;;1.80;86.90;;;;;;4994406;28;20087;-73
2021/01/24 12:59:12;;;;;;;2.60;1.55;;;1.80;89.10;;;;;;4991809;28;20546;-75
2021/01/24 13:01:38;;;;;;;3.65;1.60;;;1.80;87.30;;;;;;4997251;28;20144;-73
2021/01/24 13:04:03;;;;;;;6.18;2.80;;;1.80;90.30;;;;;;4999136;28;20520;-74